Terminal Aerodrome Forecast
Issued by NWS Charleston, WV

Current Version | Previous Version | Graphics & Text | Print | Product List | Glossary On
Versions: 1 2 3 4 5 6 7 8 9 10 11 12 13 14 15 16 17 18 19 20 21 22 23 24
000
FTUS41 KRLX 230240 AAA
TAFCRW
TAF AMD
KCRW 230240Z 2303/2324 21008KT P6SM SHRA OVC090
      TEMPO 2303/2304 4SM SHRA BKN030
     FM230700 18007KT P6SM OVC030
     FM231000 19007KT P6SM OVC035
     FM231500 21010G16KT P6SM -SHRA VCTS OVC035CB=

USA.gov is the U.S. government's official web portal to all federal, state and local government web resources and services.